Time;durP1;ratioP1;P1;durP2;ratioP2;P2;SDS_P1;SDS_P2;PMS_P1;PMS_P2;Temp;Humidity;BMP_temperature;BMP_pressure;BME280_temperature;BME280_humidity;BME280_pressure;Samples;Min_cycle;Max_cycle;Signal;HPM_P1;HPM_P2
2022/11/09 00:00:50;;;;;;;9.65;6.45;;;;;;;9.36;94.16;99103.93;1679159;85;20971;-65
2022/11/09 00:03:17;;;;;;;10.65;6.80;;;;;;;9.33;94.10;99093.67;1670512;84;21038;-65
2022/11/09 00:05:43;;;;;;;11.60;7.10;;;;;;;9.33;94.19;99094.98;1681622;85;20962;-65
2022/11/09 00:08:11;;;;;;;11.13;6.90;;;;;;;9.35;94.18;99097.02;1667825;85;20919;-65
2022/11/09 00:10:38;;;;;;;;;;;;;;;9.34;94.22;99090.14;1669617;83;20993;-65
2022/11/09 00:13:05;;;;;;;12.90;7.05;;;;;;;9.35;94.28;99091.80;1639250;85;20433;-65
2022/11/09 00:15:31;;;;;;;9.85;6.50;;;;;;;9.35;94.24;99090.50;1659095;84;21062;-65
2022/11/09 00:18:01;;;;;;;10.95;7.20;;;;;;;9.36;94.16;99083.09;1661264;83;20965;-65
2022/11/09 00:20:28;;;;;;;11.10;6.85;;;;;;;9.34;94.10;99087.53;1668005;84;20963;-65
2022/11/09 00:22:55;;;;;;;9.50;6.75;;;;;;;9.34;94.09;99081.02;1687494;85;20895;-65
2022/11/09 00:25:22;;;;;;;8.38;6.33;;;;;;;9.33;94.09;99078.04;1672478;85;21042;-65
2022/11/09 00:27:49;;;;;;;11.00;6.60;;;;;;;9.31;94.13;99075.50;1687910;85;21213;-65
2022/11/09 00:30:16;;;;;;;11.22;6.40;;;;;;;9.34;94.13;99075.80;1653979;85;20951;-65
2022/11/09 00:32:43;;;;;;;9.27;6.17;;;;;;;9.33;94.03;99081.48;1655991;85;21549;-65
2022/11/09 00:35:10;;;;;;;10.23;6.80;;;;;;;9.33;93.95;99078.04;1660077;85;20984;-64
2022/11/09 00:37:37;;;;;;;12.20;6.67;;;;;;;9.21;93.83;99055.22;1657355;85;20963;-65
2022/11/09 00:40:04;;;;;;;11.25;6.10;;;;;;;9.21;93.83;99055.22;1676666;85;21858;-65
2022/11/09 00:42:30;;;;;;;;;;;;;;;9.33;94.04;99072.83;1684704;83;20876;-65
2022/11/09 00:44:57;;;;;;;12.90;6.03;;;;;;;9.34;93.91;99069.30;1652146;85;20121;-65
2022/11/09 00:47:23;;;;;;;8.85;6.28;;;;;;;9.33;94.01;99069.76;1669563;84;21001;-65
2022/11/09 00:49:50;;;;;;;12.25;6.25;;;;;;;9.34;94.02;99068.83;1676553;85;21473;-65
2022/11/09 00:52:17;;;;;;;12.87;6.97;;;;;;;9.34;93.96;99069.30;1654373;85;21071;-65
2022/11/09 00:54:44;;;;;;;10.50;6.35;;;;;;;9.35;93.96;99070.97;1660216;85;20979;-65
2022/11/09 00:57:12;;;;;;;9.83;5.78;;;;;;;9.36;94.02;99074.81;1663664;84;21175;-65
2022/11/09 00:59:39;;;;;;;10.20;6.15;;;;;;;9.37;93.98;99066.52;1656951;84;20969;-65
2022/11/09 01:02:06;;;;;;;13.40;6.47;;;;;;;9.39;93.86;99072.50;1664512;84;20966;-65
2022/11/09 01:04:32;;;;;;;10.37;6.17;;;;;;;9.37;93.80;99067.36;1680364;84;21721;-65
2022/11/09 01:06:59;;;;;;;8.97;5.97;;;;;;;9.39;93.70;99077.72;1673846;84;21477;-65
2022/11/09 01:09:26;;;;;;;9.55;5.87;;;;;;;9.38;93.73;99086.43;1667507;84;21509;-65
2022/11/09 01:11:53;;;;;;;10.90;6.63;;;;;;;9.38;93.71;99086.43;1659880;85;20971;-65
2022/11/09 01:14:19;;;;;;;11.83;5.80;;;;;;;9.38;93.69;99081.22;1653869;85;20959;-65
2022/11/09 01:16:46;;;;;;;8.43;6.17;;;;;;;9.35;93.63;99086.59;1681846;83;21144;-65
2022/11/09 01:19:13;;;;;;;9.25;5.65;;;;;;;9.38;93.62;99099.46;1666129;85;20943;-65
2022/11/09 01:21:40;;;;;;;10.25;5.85;;;;;;;9.37;93.63;99097.78;1681917;84;20881;-65
2022/11/09 01:24:07;;;;;;;11.55;6.05;;;;;;;9.39;93.64;99098.56;1653150;86;21046;-65
2022/11/09 01:26:33;;;;;;;;;;;;;;;9.39;93.56;99098.09;1683726;84;20907;-65
2022/11/09 01:29:00;;;;;;;10.03;5.80;;;;;;;9.37;93.52;99100.39;1685956;83;21126;-65
2022/11/09 01:31:27;;;;;;;8.58;6.17;;;;;;;9.33;93.56;99098.88;1670662;84;21030;-65
2022/11/09 01:33:54;;;;;;;13.67;6.73;;;;;;;9.25;93.37;99101.04;1682864;84;20984;-65
2022/11/09 01:36:23;;;;;;;12.13;6.42;;;;;;;9.25;93.37;99101.04;1677535;83;21367;-65
2022/11/09 01:38:50;;;;;;;8.70;6.40;;;;;;;9.20;93.39;99101.27;1662967;85;20963;-65
2022/11/09 01:41:21;;;;;;;10.13;6.25;;;;;;;9.12;93.38;99096.45;1671487;85;21049;-65
2022/11/09 01:44:13;;;;;;;11.30;6.53;;;;;;;9.07;93.40;99095.83;1667083;84;21562;-65
2022/11/09 01:47:00;;;;;;;10.95;6.15;;;;;;;9.03;93.45;99096.92;1675190;84;21480;-65
2022/11/09 01:49:54;;;;;;;9.25;6.50;;;;;;;8.96;93.40;99087.72;1644199;85;20915;-65
2022/11/09 01:52:26;;;;;;;8.65;5.75;;;;;;;8.91;93.24;99089.74;1673168;85;21584;-65
2022/11/09 01:55:03;;;;;;;10.28;6.35;;;;;;;8.83;93.24;99094.49;1682168;85;21266;-65
2022/11/09 01:57:43;;;;;;;11.20;6.08;;;;;;;8.78;93.39;99091.27;1653961;85;21505;-64
2022/11/09 02:00:14;;;;;;;11.40;6.80;;;;;;;8.76;93.20;99085.29;1673648;85;21505;-65
2022/11/09 02:02:49;;;;;;;9.35;6.65;;;;;;;8.71;93.19;99077.70;1651331;86;20963;-65
2022/11/09 02:05:21;;;;;;;9.80;6.20;;;;;;;8.67;93.17;99085.30;1660394;85;21039;-65
2022/11/09 02:07:49;;;;;;;8.83;6.87;;;;;;;8.63;93.27;99085.91;1680831;84;20996;-65
2022/11/09 02:10:41;;;;;;;10.53;6.75;;;;;;;8.61;93.34;99088.20;1652864;86;21081;-65
2022/11/09 02:13:12;;;;;;;10.15;6.80;;;;;;;8.59;93.40;99082.23;1660433;86;21580;-65
2022/11/09 02:15:39;;;;;;;15.43;8.58;;;;;;;8.61;93.46;99073.42;1669091;85;20919;-65
2022/11/09 02:18:06;;;;;;;12.45;7.35;;;;;;;8.61;93.59;99074.73;1652879;86;21047;-65
2022/11/09 02:20:49;;;;;;;8.45;6.47;;;;;;;8.63;93.71;99069.00;1652579;85;21072;-65
2022/11/09 02:23:16;;;;;;;9.90;6.70;;;;;;;8.64;93.67;99069.37;1636901;86;20991;-65
2022/11/09 02:25:46;;;;;;;;;;;;;;;8.68;93.68;99063.11;1651101;86;20919;-65
2022/11/09 02:28:14;;;;;;;10.30;7.35;;;;;;;8.74;93.56;99062.80;1682156;84;20123;-65
2022/11/09 02:30:47;;;;;;;9.88;6.10;;;;;;;8.74;93.60;99057.59;1644565;86;20986;-65
2022/11/09 02:33:14;;;;;;;10.05;7.20;;;;;;;8.78;93.59;99060.03;1677878;84;22144;-65
2022/11/09 02:35:40;;;;;;;14.43;9.35;;;;;;;8.80;93.63;99063.41;1652751;84;21492;-65
2022/11/09 02:38:14;;;;;;;10.48;7.30;;;;;;;8.83;93.53;99052.84;1663163;85;20927;-65
2022/11/09 02:40:46;;;;;;;9.13;6.33;;;;;;;8.84;93.48;99036.29;1666390;84;20891;-65
2022/11/09 02:43:14;;;;;;;10.45;8.00;;;;;;;8.87;93.41;99046.55;1646558;86;20991;-65
2022/11/09 02:45:41;;;;;;;10.60;6.47;;;;;;;8.88;93.33;99049.55;1659808;84;21133;-65
2022/11/09 02:48:07;;;;;;;8.17;6.60;;;;;;;8.90;93.29;99047.69;1683398;83;20939;-65
2022/11/09 02:50:35;;;;;;;9.78;7.12;;;;;;;8.91;93.37;99063.24;1636557;85;21488;-65
2022/11/09 02:53:03;;;;;;;11.33;7.35;;;;;;;8.89;93.45;99053.83;1649992;85;20966;-65
2022/11/09 02:55:29;;;;;;;9.13;6.20;;;;;;;8.90;93.51;99041.17;1675251;83;20974;-65
2022/11/09 02:57:56;;;;;;;11.00;7.17;;;;;;;8.96;93.37;99043.46;1677754;85;21041;-65
2022/11/09 03:00:23;;;;;;;11.38;6.72;;;;;;;8.96;93.25;99051.27;1657715;85;20904;-65
2022/11/09 03:02:50;;;;;;;11.07;7.47;;;;;;;8.95;93.11;99061.31;1654051;85;20966;-65
2022/11/09 03:05:16;;;;;;;9.50;7.03;;;;;;;8.93;93.11;99054.91;1654480;85;21500;-64
2022/11/09 03:07:43;;;;;;;8.63;6.87;;;;;;;8.90;93.06;99043.78;1646769;85;20954;-65
2022/11/09 03:10:10;;;;;;;8.78;6.80;;;;;;;8.88;93.14;99038.67;1651335;86;20928;-64
2022/11/09 03:12:36;;;;;;;10.13;6.90;;;;;;;8.87;93.14;99036.13;1668702;85;20921;-65
2022/11/09 03:15:07;;;;;;;9.40;7.15;;;;;;;8.81;93.22;99037.28;1665663;85;20954;-65
2022/11/09 03:17:34;;;;;;;9.23;6.10;;;;;;;8.79;93.37;99038.28;1641460;85;20994;-65
2022/11/09 03:20:01;;;;;;;10.85;6.95;;;;;;;8.77;93.36;99044.05;1660974;85;20973;-65
2022/11/09 03:22:28;;;;;;;10.05;7.50;;;;;;;8.74;93.35;99047.18;1671428;85;21007;-65
2022/11/09 03:24:55;;;;;;;9.40;7.30;;;;;;;8.72;93.41;99042.97;1659481;85;21626;-64
2022/11/09 03:27:21;;;;;;;10.50;7.22;;;;;;;8.71;93.44;99042.13;1652310;85;21256;-65
2022/11/09 03:29:48;;;;;;;9.23;7.15;;;;;;;8.69;93.47;99041.36;1661215;85;20901;-65
2022/11/09 03:32:15;;;;;;;13.83;7.80;;;;;;;8.70;93.48;99037.83;1677379;84;20974;-65
2022/11/09 03:34:41;;;;;;;11.17;7.30;;;;;;;8.70;93.41;99035.69;1649442;85;21729;-65
2022/11/09 03:37:08;;;;;;;13.60;7.93;;;;;;;8.73;93.47;99042.88;1633183;85;20927;-65
2022/11/09 03:39:35;;;;;;;10.93;7.47;;;;;;;8.74;93.62;99039.84;1674963;85;21457;-65
2022/11/09 03:42:01;;;;;;;12.60;7.73;;;;;;;8.75;93.60;99028.49;1669446;85;21072;-65
2022/11/09 03:44:28;;;;;;;13.50;9.07;;;;;;;8.78;93.59;99020.98;1672158;84;21210;-65
2022/11/09 03:46:55;;;;;;;14.38;9.28;;;;;;;8.84;93.53;99028.48;1669008;83;21305;-65
2022/11/09 03:49:22;;;;;;;15.37;10.50;;;;;;;8.88;93.39;99027.42;1677508;83;21488;-65
2022/11/09 03:51:50;;;;;;;17.50;11.55;;;;;;;8.88;93.47;99027.42;1657316;84;28249;-65
2022/11/09 03:54:17;;;;;;;15.40;10.55;;;;;;;8.90;93.48;99025.56;1670451;84;20991;-65
2022/11/09 03:56:43;;;;;;;16.12;10.90;;;;;;;8.92;93.41;99027.63;1662023;85;20997;-65
2022/11/09 03:59:10;;;;;;;20.07;12.37;;;;;;;8.91;93.46;99029.86;1678033;84;21075;-64
2022/11/09 04:01:37;;;;;;;15.15;10.70;;;;;;;8.88;93.64;99024.81;1675403;85;21074;-66
2022/11/09 04:04:04;;;;;;;16.97;10.13;;;;;;;8.94;93.67;99029.70;1674199;84;20997;-65
2022/11/09 04:06:30;;;;;;;13.32;10.20;;;;;;;8.92;93.65;99028.93;1674697;84;20970;-65
2022/11/09 04:08:57;;;;;;;13.37;8.57;;;;;;;8.93;93.62;99018.89;1650687;84;20930;-65
2022/11/09 04:11:24;;;;;;;12.70;8.37;;;;;;;8.94;93.58;99011.48;1664642;84;21210;-65
2022/11/09 04:13:50;;;;;;;13.00;8.07;;;;;;;8.95;93.64;99007.94;1677144;84;20894;-65
2022/11/09 04:16:17;;;;;;;10.70;8.03;;;;;;;8.97;93.69;99013.92;1677797;85;21003;-65
2022/11/09 04:18:44;;;;;;;11.17;7.67;;;;;;;9.03;93.56;99005.78;1666262;84;20986;-65
2022/11/09 04:21:11;;;;;;;13.58;7.45;;;;;;;9.06;93.42;98999.11;1687744;84;21073;-66
2022/11/09 04:23:37;;;;;;;11.80;7.73;;;;;;;9.06;93.45;99003.02;1688382;84;21071;-66
2022/11/09 04:26:04;;;;;;;9.53;6.80;;;;;;;9.09;93.40;99008.06;1665960;86;20942;-65
2022/11/09 04:28:31;;;;;;;10.85;7.12;;;;;;;9.07;93.37;99004.69;1668725;84;20973;-65
2022/11/09 04:31:01;;;;;;;11.88;7.40;;;;;;;9.05;93.37;99010.45;1671736;84;20938;-65
2022/11/09 04:33:28;;;;;;;11.35;7.67;;;;;;;9.06;93.23;98995.20;1686831;83;20962;-65
2022/11/09 04:36:01;;;;;;;11.18;6.95;;;;;;;9.04;93.15;99002.24;1696368;83;21066;-66
2022/11/09 04:38:27;;;;;;;10.93;6.72;;;;;;;9.02;93.11;99008.45;1690512;83;21475;-66
2022/11/09 04:40:54;;;;;;;10.95;6.55;;;;;;;8.98;93.14;99002.57;1685016;83;20942;-65
2022/11/09 04:43:20;;;;;;;12.35;7.05;;;;;;;8.92;93.32;99002.89;1681104;83;21545;-65
2022/11/09 04:45:47;;;;;;;10.00;6.90;;;;;;;8.90;93.22;99009.94;1675152;83;20950;-66
2022/11/09 04:48:14;;;;;;;10.55;7.00;;;;;;;8.88;93.24;99000.09;1682148;85;21130;-65
2022/11/09 04:50:40;;;;;;;9.03;6.60;;;;;;;8.85;93.17;99001.52;1653178;85;20907;-65
2022/11/09 04:53:14;;;;;;;11.80;6.83;;;;;;;8.81;93.13;98992.20;1670524;83;21630;-65
2022/11/09 04:55:41;;;;;;;9.83;7.30;;;;;;;8.76;93.14;98994.19;1666527;84;20986;-65
2022/11/09 04:58:08;;;;;;;10.78;8.28;;;;;;;8.70;93.16;98990.98;1651195;86;20979;-65
2022/11/09 05:00:36;;;;;;;11.03;7.87;;;;;;;8.67;93.28;98996.34;1653575;85;21465;-65
2022/11/09 05:03:04;;;;;;;12.15;8.53;;;;;;;8.68;93.03;99000.64;1672472;85;20955;-65
2022/11/09 05:05:37;;;;;;;11.50;7.62;;;;;;;8.66;93.03;98994.67;1647096;86;20959;-66
2022/11/09 05:08:05;;;;;;;13.08;8.38;;;;;;;8.59;93.07;99001.09;1654215;85;20984;-65
2022/11/09 05:10:32;;;;;;;10.85;7.67;;;;;;;8.52;93.09;99007.54;1655032;85;21517;-66
2022/11/09 05:13:04;;;;;;;12.73;8.00;;;;;;;8.50;93.04;99008.91;1680559;83;21061;-66
2022/11/09 05:15:31;;;;;;;12.35;7.42;;;;;;;8.46;93.02;99006.09;1649342;85;20915;-65
2022/11/09 05:17:58;;;;;;;11.28;7.05;;;;;;;8.46;93.01;99015.66;1653861;85;20958;-65
2022/11/09 05:20:25;;;;;;;13.20;7.80;;;;;;;8.45;92.86;99014.79;1664127;85;21003;-65
2022/11/09 05:25:36;;;;;;;10.28;7.47;;;;;;;8.37;92.80;99022.09;1640833;85;21143;-65
2022/11/09 05:28:03;;;;;;;10.40;7.67;;;;;;;8.36;92.86;99016.98;1661567;85;21570;-65
2022/11/09 05:30:30;;;;;;;12.15;8.55;;;;;;;8.26;93.15;99012.25;1678811;85;20967;-66
2022/11/09 05:32:56;;;;;;;14.75;10.05;;;;;;;8.24;93.18;99018.44;1667814;85;21563;-65
2022/11/09 05:35:23;;;;;;;11.08;7.60;;;;;;;8.22;93.13;99015.90;1677004;83;20978;-66
2022/11/09 05:37:50;;;;;;;11.20;7.47;;;;;;;8.19;93.20;99016.05;1652945;85;21054;-65
2022/11/09 05:40:18;;;;;;;16.17;10.15;;;;;;;8.22;92.87;99018.50;1665182;84;21007;-65
2022/11/09 05:42:45;;;;;;;19.25;8.63;;;;;;;8.22;92.65;99018.50;1665089;85;20900;-65
2022/11/09 05:45:15;;;;;;;17.50;10.45;;;;;;;8.14;92.79;99015.43;1661921;85;20931;-65
2022/11/09 05:47:43;;;;;;;17.80;10.75;;;;;;;8.08;93.04;99015.73;1639608;85;20938;-66
2022/11/09 05:50:15;;;;;;;10.93;8.28;;;;;;;8.04;93.10;99019.41;1661280;85;21520;-65
2022/11/09 05:52:41;;;;;;;15.53;10.85;;;;;;;8.03;93.08;99013.34;1659679;85;20977;-66
2022/11/09 05:55:09;;;;;;;16.10;11.55;;;;;;;8.03;92.94;99009.91;1659080;85;21022;-65
2022/11/09 05:57:36;;;;;;;18.12;11.50;;;;;;;8.01;92.88;99013.03;1655990;85;21517;-65
2022/11/09 06:00:04;;;;;;;19.07;11.80;;;;;;;7.97;92.81;99015.41;1660947;85;20975;-65
2022/11/09 06:02:32;;;;;;;16.97;10.82;;;;;;;7.93;92.94;99017.31;1659449;85;21912;-65
2022/11/09 06:04:58;;;;;;;18.95;11.20;;;;;;;7.95;92.91;99019.83;1660672;85;20970;-65
2022/11/09 06:07:25;;;;;;;15.93;12.13;;;;;;;7.97;92.78;99024.50;1660020;85;20927;-65
2022/11/09 06:09:52;;;;;;;18.37;11.83;;;;;;;7.88;93.05;99028.84;1659117;85;20994;-65
2022/11/09 06:12:19;;;;;;;16.42;11.65;;;;;;;7.84;93.17;99029.00;1656945;85;21496;-65
2022/11/09 06:14:46;;;;;;;16.37;11.33;;;;;;;7.84;93.16;99023.80;1660922;85;21102;-66
2022/11/09 06:17:13;;;;;;;20.45;12.63;;;;;;;7.84;93.35;99026.39;1660559;85;21015;-66
2022/11/09 06:19:40;;;;;;;15.45;12.25;;;;;;;7.87;93.37;99016.75;1661017;85;20970;-65
2022/11/09 06:22:06;;;;;;;17.90;12.50;;;;;;;7.94;93.30;99013.80;1658176;85;20982;-66
2022/11/09 06:24:33;;;;;;;16.47;11.07;;;;;;;7.94;93.40;99018.16;1658191;85;21819;-66
2022/11/09 06:27:00;;;;;;;15.48;11.95;;;;;;;8.03;93.29;99012.50;1652302;85;21039;-65
2022/11/09 06:29:26;;;;;;;15.33;10.13;;;;;;;8.08;93.09;99018.33;1654358;85;21505;-65
2022/11/09 06:31:53;;;;;;;12.67;9.37;;;;;;;8.09;93.04;99030.41;1668710;85;20947;-66
2022/11/09 06:34:20;;;;;;;15.60;10.48;;;;;;;8.15;93.06;99032.73;1657061;85;20923;-65
2022/11/09 06:36:47;;;;;;;16.10;11.95;;;;;;;8.18;92.96;99026.08;1667517;85;20962;-65
2022/11/09 06:39:14;;;;;;;15.63;11.63;;;;;;;8.16;93.03;99029.20;1654823;84;20974;-65
2022/11/09 06:41:41;;;;;;;17.65;13.05;;;;;;;8.15;93.16;99028.84;1655863;85;21031;-65
2022/11/09 06:44:08;;;;;;;17.48;12.13;;;;;;;8.13;93.33;99031.13;1653764;85;20978;-66
2022/11/09 06:46:34;;;;;;;21.95;13.25;;;;;;;8.15;93.46;99039.23;1665095;85;21406;-65
2022/11/09 06:49:01;;;;;;;18.97;12.67;;;;;;;8.21;93.32;99040.23;1649746;85;21000;-66
2022/11/09 06:51:28;;;;;;;15.30;11.10;;;;;;;8.24;93.29;99034.88;1660885;84;21050;-65
2022/11/09 06:53:54;;;;;;;15.03;11.23;;;;;;;8.38;93.14;99034.67;1678020;85;20947;-65
2022/11/09 06:56:21;;;;;;;15.70;11.22;;;;;;;8.38;93.14;99034.67;1658494;85;21347;-66
2022/11/09 06:58:49;;;;;;;18.50;10.75;;;;;;;8.42;93.10;99038.83;1658438;85;21000;-66
2022/11/09 07:01:18;;;;;;;13.32;10.18;;;;;;;8.41;93.07;99041.05;1674573;85;20903;-65
2022/11/09 07:03:45;;;;;;;12.90;10.05;;;;;;;8.43;93.08;99033.99;1647286;86;21322;-65
2022/11/09 07:06:15;;;;;;;14.43;9.38;;;;;;;8.45;92.99;99034.77;1662126;85;20919;-63
2022/11/09 07:08:42;;;;;;;13.85;9.13;;;;;;;8.46;93.20;99044.28;1660886;85;20990;-65
2022/11/09 07:11:18;;;;;;;16.23;10.68;;;;;;;8.46;93.21;99046.41;1671572;85;20966;-63
2022/11/09 07:13:47;;;;;;;13.03;9.53;;;;;;;8.46;93.34;99037.77;1652298;86;20961;-64
2022/11/09 07:16:16;;;;;;;13.40;10.58;;;;;;;8.53;93.40;99024.83;1647892;86;22532;-65
2022/11/09 07:18:44;;;;;;;15.60;10.48;;;;;;;8.60;93.43;99028.81;1648043;86;20896;-66
2022/11/09 07:21:12;;;;;;;14.40;9.80;;;;;;;8.69;93.53;99025.74;1653471;86;20959;-66
2022/11/09 07:23:38;;;;;;;14.28;10.50;;;;;;;8.85;93.62;99024.95;1659272;85;20950;-65
2022/11/09 07:26:05;;;;;;;15.03;10.43;;;;;;;8.99;93.58;99023.80;1667888;85;21019;-67
2022/11/09 07:28:32;;;;;;;12.98;10.25;;;;;;;9.15;93.48;99044.66;1660009;85;21042;-67
2022/11/09 07:30:59;;;;;;;11.78;9.35;;;;;;;9.35;93.64;99042.30;1657286;85;21532;-66
2022/11/09 07:33:29;;;;;;;12.25;9.18;;;;;;;9.56;93.85;99034.66;1644646;85;20924;-66
2022/11/09 07:35:54;;;;;;;11.70;9.43;;;;;;;9.80;93.53;99030.31;1669290;84;21487;-67
2022/11/09 07:38:21;;;;;;;14.13;10.25;;;;;;;9.89;93.16;99019.41;1666049;85;20928;-65
2022/11/09 07:40:48;;;;;;;16.37;10.90;;;;;;;9.93;92.93;99030.02;1663307;85;21702;-65
2022/11/09 07:43:16;;;;;;;14.07;9.98;;;;;;;9.95;92.72;99033.39;1658973;85;20891;-64
2022/11/09 07:45:42;;;;;;;12.35;9.48;;;;;;;9.97;92.61;99025.03;1666369;84;20982;-65
2022/11/09 07:48:11;;;;;;;11.40;9.30;;;;;;;9.96;92.61;99032.45;1651509;85;20990;-65
2022/11/09 07:50:40;;;;;;;12.80;9.90;;;;;;;9.97;92.90;99045.89;1654242;85;21551;-65
2022/11/09 07:53:07;;;;;;;16.35;10.15;;;;;;;9.98;92.96;99037.14;1651556;85;21696;-65
2022/11/09 07:55:34;;;;;;;12.45;9.28;;;;;;;10.01;92.72;99046.09;1648064;85;21069;-66
2022/11/09 07:58:06;;;;;;;12.47;9.90;;;;;;;10.07;92.71;99052.27;1656834;85;20970;-66
2022/11/09 08:00:35;;;;;;;14.78;10.48;;;;;;;10.08;92.62;99059.18;1653248;84;20990;-66
2022/11/09 08:03:02;;;;;;;13.38;10.28;;;;;;;10.09;92.56;99047.81;1653813;85;20904;-66
2022/11/09 08:05:30;;;;;;;16.65;11.53;;;;;;;10.08;92.68;99044.84;1652466;85;21150;-65
2022/11/09 08:07:58;;;;;;;;;;;;;;;10.08;92.96;99041.36;1654752;85;20907;-65
2022/11/09 08:10:27;;;;;;;14.20;9.95;;;;;;;10.15;92.83;99048.39;1654880;85;20102;-65
2022/11/09 08:12:56;;;;;;;14.40;9.70;;;;;;;10.18;92.72;99052.13;1648648;85;21519;-65
2022/11/09 08:15:23;;;;;;;13.68;9.68;;;;;;;10.24;92.83;99049.17;1652899;86;20979;-66
2022/11/09 08:17:51;;;;;;;14.03;10.45;;;;;;;10.27;92.88;99047.72;1643207;85;21053;-66
2022/11/09 08:20:20;;;;;;;13.98;10.68;;;;;;;10.33;92.67;99052.59;1640132;85;20954;-66
2022/11/09 08:22:47;;;;;;;15.55;10.68;;;;;;;10.36;92.72;99056.33;1645276;85;20967;-65
2022/11/09 08:25:14;;;;;;;13.07;10.50;;;;;;;10.40;92.87;99048.72;1647154;85;20954;-66
2022/11/09 08:27:41;;;;;;;17.25;10.30;;;;;;;10.48;92.87;99048.28;1644547;85;21157;-66
2022/11/09 08:30:13;;;;;;;13.30;10.32;;;;;;;10.52;92.64;99048.00;1643263;85;21027;-66
2022/11/09 08:32:41;;;;;;;18.27;10.15;;;;;;;10.58;92.57;99036.36;1628528;85;21524;-65
2022/11/09 08:35:10;;;;;;;15.35;10.63;;;;;;;10.68;92.55;99035.38;1643492;85;21786;-65
2022/11/09 08:37:38;;;;;;;13.58;10.23;;;;;;;10.68;92.55;99035.38;1642400;85;20922;-65
2022/11/09 08:40:06;;;;;;;13.93;10.55;;;;;;;10.70;92.20;99034.83;1649353;85;20937;-66
2022/11/09 08:42:33;;;;;;;15.03;9.95;;;;;;;10.77;92.53;99037.91;1646368;85;21009;-65
2022/11/09 08:45:00;;;;;;;19.32;9.98;;;;;;;10.93;92.95;99043.91;1645092;85;20891;-66
2022/11/09 08:47:28;;;;;;;16.00;11.75;;;;;;;11.06;92.53;99039.64;1654647;84;21010;-66
2022/11/09 08:49:54;;;;;;;16.65;11.48;;;;;;;11.15;92.72;99038.25;1659714;85;21011;-66
2022/11/09 08:52:21;;;;;;;15.90;11.55;;;;;;;11.23;92.59;99019.02;1659891;85;21670;-66
2022/11/09 08:54:48;;;;;;;16.90;10.70;;;;;;;11.45;92.52;99028.14;1655554;85;21073;-65
2022/11/09 08:57:18;;;;;;;14.87;11.20;;;;;;;11.51;92.06;99023.83;1672355;85;20983;-66
2022/11/09 08:59:45;;;;;;;15.72;11.20;;;;;;;11.53;91.95;99029.81;1658357;85;21425;-66
2022/11/09 09:02:14;;;;;;;;;;;;;;;11.53;91.95;99029.81;1662794;85;21562;-66
2022/11/09 09:04:41;;;;;;;17.30;10.35;;;;;;;11.53;91.53;99027.20;1657934;85;20093;-66
2022/11/09 09:07:09;;;;;;;13.15;10.25;;;;;;;11.50;91.56;99026.08;1660053;85;21730;-66
2022/11/09 09:09:39;;;;;;;13.65;10.25;;;;;;;11.51;91.95;99026.00;1658009;85;20946;-66
2022/11/09 09:12:08;;;;;;;18.48;11.33;;;;;;;11.72;91.69;99025.11;1657322;85;21058;-66
2022/11/09 09:14:35;;;;;;;21.75;11.35;;;;;;;11.83;91.58;99033.12;1653405;84;20970;-66
2022/11/09 09:17:02;;;;;;;10.85;8.83;;;;;;;11.91;90.95;99043.13;1659405;85;20895;-66
2022/11/09 09:19:29;;;;;;;11.73;9.15;;;;;;;11.88;90.67;99034.17;1670642;85;21751;-65
2022/11/09 09:21:56;;;;;;;13.00;9.55;;;;;;;11.89;90.64;99029.30;1656573;85;21481;-66
2022/11/09 09:24:22;;;;;;;13.50;9.40;;;;;;;11.98;90.86;99027.88;1658218;85;20907;-66
2022/11/09 09:26:49;;;;;;;14.17;9.93;;;;;;;12.00;90.45;99032.55;1671997;85;20990;-66
2022/11/09 09:29:23;;;;;;;13.32;9.43;;;;;;;11.91;90.81;99037.07;1657615;85;21308;-66
2022/11/09 09:31:50;;;;;;;12.98;9.88;;;;;;;11.93;90.94;99045.64;1658874;85;21226;-66
2022/11/09 09:34:16;;;;;;;13.53;9.60;;;;;;;12.03;91.03;99025.81;1670279;85;20943;-66
2022/11/09 09:36:43;;;;;;;12.50;9.38;;;;;;;12.08;90.88;99031.59;1660016;85;21009;-66
2022/11/09 09:39:10;;;;;;;12.78;10.00;;;;;;;12.16;90.85;99038.95;1656097;85;21014;-66
2022/11/09 09:42:01;;;;;;;10.65;8.65;;;;;;;12.16;90.42;99043.72;1658579;85;21016;-65
2022/11/09 09:44:33;;;;;;;11.57;9.33;;;;;;;12.23;90.61;99038.91;1662289;85;21066;-65
2022/11/09 09:47:19;;;;;;;15.93;9.18;;;;;;;12.31;90.58;99027.00;1687632;84;20965;-66
2022/11/09 09:50:12;;;;;;;15.75;11.08;;;;;;;12.34;90.69;99039.53;1670424;84;20948;-66
2022/11/09 09:52:59;;;;;;;14.85;9.85;;;;;;;12.41;90.72;99039.52;1695613;83;21442;-66
2022/11/09 09:55:40;;;;;;;12.80;9.30;;;;;;;12.43;90.72;99044.16;1698651;83;21001;-66
2022/11/09 09:58:29;;;;;;;11.55;8.98;;;;;;;12.47;90.29;99043.03;1687419;83;21082;-66
2022/11/09 10:01:18;;;;;;;10.95;8.18;;;;;;;12.48;90.04;99050.77;1671794;84;20924;-66
2022/11/09 10:03:49;;;;;;;12.20;9.33;;;;;;;12.49;89.71;99038.06;1660933;84;20982;-65
2022/11/09 10:06:47;;;;;;;12.95;8.63;;;;;;;12.47;89.45;99029.94;1634252;85;21061;-66
2022/11/09 10:09:22;;;;;;;13.90;8.55;;;;;;;12.38;89.68;99035.31;1636399;85;21511;-66
2022/11/09 10:11:59;;;;;;;13.28;9.20;;;;;;;12.50;89.46;99023.19;1650637;85;21162;-66
2022/11/09 10:14:34;;;;;;;13.30;8.83;;;;;;;12.58;89.54;99022.20;1636077;85;21008;-66
2022/11/09 10:17:33;;;;;;;11.68;8.48;;;;;;;12.62;89.56;99023.67;1651945;85;21519;-66
2022/11/09 10:20:25;;;;;;;11.90;8.30;;;;;;;12.69;89.34;99023.64;1652160;85;21171;-66
2022/11/09 10:23:19;;;;;;;12.03;7.83;;;;;;;12.74;89.38;99020.24;1651551;85;21009;-66
2022/11/09 10:25:51;;;;;;;11.28;8.98;;;;;;;12.76;88.98;99020.95;1650966;85;21133;-66
2022/11/09 10:28:22;;;;;;;11.08;8.78;;;;;;;12.70;89.00;99018.75;1649979;85;20998;-66
2022/11/09 10:30:49;;;;;;;10.95;8.33;;;;;;;12.70;88.87;99006.97;1651583;85;20989;-66
2022/11/09 10:33:20;;;;;;;10.40;7.22;;;;;;;12.65;88.79;99007.74;1652110;85;20957;-66
2022/11/09 10:35:52;;;;;;;11.35;8.03;;;;;;;12.64;88.80;99007.39;1653067;85;20952;-66
2022/11/09 10:38:24;;;;;;;10.63;7.80;;;;;;;12.55;88.40;98996.23;1687259;84;21498;-66
2022/11/09 10:41:15;;;;;;;8.73;7.83;;;;;;;12.49;88.45;98993.99;1664618;84;20951;-66
2022/11/09 10:43:42;;;;;;;12.20;8.55;;;;;;;12.45;88.26;99000.39;1666171;84;21015;-66
2022/11/09 10:46:09;;;;;;;9.95;8.15;;;;;;;12.36;88.87;98995.77;1664461;84;20964;-65
2022/11/09 10:48:39;;;;;;;18.07;12.37;;;;;;;12.41;89.25;99009.41;1651170;85;20939;-66
2022/11/09 10:51:26;;;;;;;18.15;12.35;;;;;;;12.40;88.98;99011.16;1664020;84;21071;-65
2022/11/09 10:54:13;;;;;;;;;;;;;;;12.43;88.96;99012.26;1664223;84;21496;-65
2022/11/09 10:56:49;;;;;;;12.47;8.63;;;;;;;12.46;88.84;99022.56;1659525;85;20109;-64
2022/11/09 10:59:45;;;;;;;11.93;8.93;;;;;;;12.49;88.93;99024.11;1665421;85;20969;-65
2022/11/09 11:02:29;;;;;;;13.38;9.20;;;;;;;12.48;88.64;99036.84;1665297;84;20989;-65
2022/11/09 11:05:08;;;;;;;13.50;9.63;;;;;;;12.43;88.21;99038.91;1683524;85;21929;-65
2022/11/09 11:07:35;;;;;;;10.25;8.40;;;;;;;12.27;88.00;99041.23;1673314;85;20939;-66
2022/11/09 11:10:19;;;;;;;12.00;8.18;;;;;;;12.20;88.17;99046.48;1685637;84;20923;-65
2022/11/09 11:13:00;;;;;;;12.82;9.00;;;;;;;12.14;88.12;99039.04;1662494;84;21469;-65
2022/11/09 11:15:40;;;;;;;14.78;9.33;;;;;;;12.08;88.07;99039.44;1659312;84;21016;-65
2022/11/09 11:18:22;;;;;;;16.62;11.12;;;;;;;12.04;88.23;99030.09;1681359;85;21088;-66
2022/11/09 11:21:14;;;;;;;15.05;9.80;;;;;;;12.03;88.40;99031.05;1651314;85;20991;-67
2022/11/09 11:23:41;;;;;;;17.20;10.82;;;;;;;12.03;88.13;99025.81;1652198;85;21089;-66
2022/11/09 11:26:31;;;;;;;16.02;10.45;;;;;;;12.00;88.37;99024.70;1650880;85;21125;-68
2022/11/09 11:29:03;;;;;;;14.98;9.63;;;;;;;12.02;88.23;99024.14;1680632;84;20971;-65
2022/11/09 11:31:31;;;;;;;19.50;11.18;;;;;;;12.04;88.16;99024.86;1682021;84;21098;-68
2022/11/09 11:33:58;;;;;;;16.10;11.28;;;;;;;12.06;87.94;99012.53;1669605;85;21477;-68
2022/11/09 11:36:48;;;;;;;15.30;11.28;;;;;;;12.06;87.94;99012.53;1666205;84;20911;-66
2022/11/09 11:39:19;;;;;;;16.62;11.63;;;;;;;12.11;88.18;99007.84;1663388;84;21539;-66
2022/11/09 11:42:10;;;;;;;14.58;10.98;;;;;;;12.13;88.29;99011.20;1668754;84;21052;-64
2022/11/09 11:44:45;;;;;;;14.68;11.00;;;;;;;12.19;88.22;99002.11;1599191;87;21110;-65
2022/11/09 11:47:32;;;;;;;14.85;10.65;;;;;;;12.19;88.22;99002.11;1617475;87;21020;-67